createdAt,value
2023-03-04T00:02:06.752Z,53.16
2023-03-04T00:04:33.095Z,53.12
2023-03-04T00:06:59.443Z,53.59
2023-03-04T00:09:25.834Z,53.77
2023-03-04T00:11:52.160Z,53.61
2023-03-04T00:14:18.629Z,53.49
2023-03-04T00:16:45.083Z,53.87
2023-03-04T00:19:11.544Z,53.76
2023-03-04T00:21:37.895Z,54.02
2023-03-04T00:24:04.312Z,53.71
2023-03-04T00:26:30.774Z,53.61
2023-03-04T00:28:57.109Z,53.89
2023-03-04T00:31:23.607Z,53.94
2023-03-04T00:33:50.131Z,53.95
2023-03-04T00:36:16.466Z,54.34
2023-03-04T00:38:42.774Z,54.05
2023-03-04T00:41:09.143Z,54.34
2023-03-04T00:43:35.496Z,54.30
2023-03-04T00:46:02.117Z,54.26
2023-03-04T00:48:28.498Z,54.06
2023-03-04T00:50:54.811Z,54.55
2023-03-04T00:53:23.855Z,54.75
2023-03-04T00:55:50.278Z,54.34
2023-03-04T00:58:16.762Z,54.72
2023-03-04T01:00:43.180Z,54.21
2023-03-04T01:03:09.531Z,54.24
2023-03-04T01:05:36.078Z,54.46
2023-03-04T01:08:03.714Z,54.64
2023-03-04T01:10:30.133Z,54.28
2023-03-04T01:12:56.841Z,54.51
2023-03-04T01:15:23.458Z,54.22
2023-03-04T01:17:50.023Z,54.56
2023-03-04T01:20:16.975Z,54.52
2023-03-04T01:22:43.351Z,54.36
2023-03-04T01:25:10.322Z,54.51
2023-03-04T01:27:36.740Z,54.56
2023-03-04T01:30:04.742Z,54.67
2023-03-04T01:32:31.159Z,54.25
2023-03-04T01:34:57.642Z,54.65
2023-03-04T01:37:24.050Z,54.79
2023-03-04T01:39:50.460Z,54.40
2023-03-04T01:42:22.387Z,54.26
2023-03-04T01:44:51.004Z,54.47
2023-03-04T01:47:18.861Z,54.34
2023-03-04T01:49:50.746Z,54.43
2023-03-04T01:52:17.065Z,54.31
2023-03-04T01:54:43.513Z,54.37
2023-03-04T01:57:21.635Z,54.00
2023-03-04T02:00:08.237Z,54.16
2023-03-04T02:02:34.571Z,54.35
2023-03-04T02:05:00.948Z,54.43
2023-03-04T02:07:27.292Z,54.36
2023-03-04T02:09:53.637Z,54.36
2023-03-04T02:12:20.029Z,54.25
2023-03-04T02:14:46.382Z,54.71
2023-03-04T02:17:13.408Z,54.60
2023-03-04T02:19:50.820Z,54.64
2023-03-04T02:22:17.265Z,54.76
2023-03-04T02:24:49.555Z,54.23
2023-03-04T02:27:16.156Z,54.03
2023-03-04T02:29:42.576Z,54.29
2023-03-04T02:32:12.992Z,54.40
2023-03-04T02:34:46.875Z,54.01
2023-03-04T02:37:13.990Z,54.33
2023-03-04T02:39:43.180Z,54.56
2023-03-04T02:42:10.171Z,54.09
2023-03-04T02:44:39.173Z,54.19
2023-03-04T02:47:08.427Z,54.24
2023-03-04T02:49:36.967Z,54.40
2023-03-04T02:52:22.198Z,54.40
2023-03-04T02:54:48.723Z,54.31
2023-03-04T02:57:15.736Z,54.25
2023-03-04T02:59:42.688Z,54.34
2023-03-04T03:02:09.646Z,54.51
2023-03-04T03:04:38.209Z,54.18
2023-03-04T03:07:05.055Z,54.34
2023-03-04T03:09:31.674Z,54.81
2023-03-04T03:11:58.050Z,54.54
2023-03-04T03:14:24.369Z,54.70
2023-03-04T03:16:50.704Z,54.73
2023-03-04T03:19:17.022Z,54.98
2023-03-04T03:21:43.395Z,54.84
2023-03-04T03:24:09.871Z,54.55
2023-03-04T03:26:36.250Z,54.92
2023-03-04T03:29:02.661Z,54.83
2023-03-04T03:31:29.229Z,55.04
2023-03-04T03:33:55.577Z,54.82
2023-03-04T03:36:22.080Z,55.10
2023-03-04T03:38:48.397Z,55.01
2023-03-04T03:41:14.728Z,55.20
2023-03-04T03:43:41.053Z,54.71
2023-03-04T03:46:07.412Z,54.76
2023-03-04T03:48:33.818Z,54.66
2023-03-04T03:51:00.162Z,54.83
2023-03-04T03:53:26.481Z,55.01
2023-03-04T03:55:52.846Z,54.90
2023-03-04T03:58:19.233Z,54.78
2023-03-04T04:00:45.575Z,55.04
2023-03-04T04:03:15.592Z,54.92
2023-03-04T04:05:41.947Z,55.07
2023-03-04T04:08:12.967Z,54.83
2023-03-04T04:10:39.422Z,55.16
2023-03-04T04:13:05.744Z,55.28
2023-03-04T04:15:32.151Z,54.78
2023-03-04T04:17:58.525Z,54.83
2023-03-04T04:20:26.249Z,55.21
2023-03-04T04:22:52.807Z,55.06
2023-03-04T04:25:19.175Z,55.39
2023-03-04T04:27:45.517Z,55.24
2023-03-04T04:30:12.391Z,55.23
2023-03-04T04:32:38.720Z,55.18
2023-03-04T04:35:05.584Z,55.22
2023-03-04T04:37:32.046Z,55.46
2023-03-04T04:39:58.420Z,55.39
2023-03-04T04:42:25.000Z,55.35
2023-03-04T04:44:52.536Z,55.35
2023-03-04T04:47:18.853Z,55.45
2023-03-04T04:49:45.192Z,55.18
2023-03-04T04:52:11.807Z,55.61
2023-03-04T04:54:38.138Z,55.51
2023-03-04T04:57:04.766Z,55.62
2023-03-04T04:59:31.078Z,55.62
2023-03-04T05:01:57.552Z,55.76
2023-03-04T05:04:24.025Z,55.55
2023-03-04T05:06:50.374Z,55.68
2023-03-04T05:09:16.760Z,55.77
2023-03-04T05:11:43.092Z,55.76
2023-03-04T05:14:09.429Z,55.62
2023-03-04T05:16:35.869Z,56.05
2023-03-04T05:19:02.200Z,56.02
2023-03-04T05:21:28.589Z,56.31
2023-03-04T05:23:55.245Z,55.84
2023-03-04T05:26:21.591Z,56.05
2023-03-04T05:28:48.059Z,56.52
2023-03-04T05:31:14.855Z,56.13
2023-03-04T05:33:41.280Z,56.11
2023-03-04T05:36:08.065Z,56.17
2023-03-04T05:38:34.914Z,56.20
2023-03-04T05:41:05.366Z,56.54
2023-03-04T05:43:34.173Z,56.23
2023-03-04T05:46:00.515Z,56.45
2023-03-04T05:48:28.880Z,56.51
2023-03-04T05:51:00.787Z,56.53
2023-03-04T05:53:28.078Z,56.72
2023-03-04T05:55:54.555Z,56.66
2023-03-04T05:58:21.822Z,56.25
2023-03-04T06:00:48.454Z,56.50
2023-03-04T06:03:22.466Z,56.31
2023-03-04T06:05:49.017Z,56.55
2023-03-04T06:08:15.425Z,56.48
2023-03-04T06:10:42.105Z,56.60
2023-03-04T06:13:09.247Z,56.69
2023-03-04T06:15:35.765Z,56.44
2023-03-04T06:18:02.279Z,56.73
2023-03-04T06:20:28.791Z,56.86
2023-03-04T06:22:55.480Z,56.65
2023-03-04T06:25:22.111Z,56.76
2023-03-04T06:27:50.622Z,57.20
2023-03-04T06:30:18.049Z,57.04
2023-03-04T06:32:44.478Z,57.66
2023-03-04T06:35:12.025Z,57.63
2023-03-04T06:37:38.522Z,57.77
2023-03-04T06:40:05.781Z,57.80
2023-03-04T06:42:32.137Z,57.51
2023-03-04T06:44:58.475Z,57.64
2023-03-04T06:47:24.913Z,58.03
2023-03-04T06:49:51.354Z,58.02
2023-03-04T06:52:17.848Z,57.88
2023-03-04T06:54:44.327Z,57.92
2023-03-04T06:57:10.636Z,58.36
2023-03-04T06:59:37.027Z,58.34
2023-03-04T07:02:03.450Z,58.41
2023-03-04T07:04:29.795Z,58.05
2023-03-04T07:06:56.197Z,58.09
2023-03-04T07:09:22.544Z,58.54
2023-03-04T07:11:48.926Z,58.38
2023-03-04T07:14:15.607Z,58.63
2023-03-04T07:16:42.007Z,58.63
2023-03-04T07:19:08.423Z,58.84
2023-03-04T07:21:34.865Z,58.87
2023-03-04T07:24:02.502Z,58.92
2023-03-04T07:26:28.815Z,59.26
2023-03-04T07:28:57.139Z,59.25
2023-03-04T07:31:32.443Z,59.12
2023-03-04T07:34:04.348Z,59.30
2023-03-04T07:36:30.714Z,59.50
2023-03-04T07:38:57.194Z,59.78
2023-03-04T07:41:27.656Z,59.55
2023-03-04T07:44:00.756Z,59.52
2023-03-04T07:46:27.410Z,59.72
2023-03-04T07:48:55.852Z,59.73
2023-03-04T07:51:24.312Z,59.99
2023-03-04T07:53:58.018Z,60.26
2023-03-04T07:56:27.812Z,60.39
2023-03-04T07:58:56.584Z,60.40
2023-03-04T08:01:31.113Z,60.52
2023-03-04T08:03:58.145Z,60.59
2023-03-04T08:06:26.706Z,60.75
2023-03-04T08:09:01.791Z,61.17
2023-03-04T08:11:29.940Z,61.25
2023-03-04T08:13:56.479Z,61.44
2023-03-04T08:16:24.297Z,61.49
2023-03-04T08:18:56.125Z,61.22
2023-03-04T08:21:24.711Z,61.53
2023-03-04T08:23:51.580Z,62.16
2023-03-04T08:26:23.313Z,62.43
2023-03-04T08:28:50.186Z,62.53
2023-03-04T08:31:18.137Z,62.47
2023-03-04T08:33:45.254Z,62.48
2023-03-04T08:36:12.820Z,62.67
2023-03-04T08:38:39.482Z,62.49
2023-03-04T08:41:06.341Z,62.39
2023-03-04T08:43:34.608Z,62.95
2023-03-04T08:46:01.264Z,62.76
2023-03-04T08:48:27.856Z,63.24
2023-03-04T08:50:54.626Z,63.08
2023-03-04T08:53:21.649Z,63.11
2023-03-04T08:55:50.334Z,63.50
2023-03-04T08:58:16.962Z,62.97
2023-03-04T09:00:48.273Z,63.14
2023-03-04T09:03:17.059Z,63.36
2023-03-04T09:05:45.705Z,63.12
2023-03-04T09:08:12.912Z,63.85
2023-03-04T09:10:39.704Z,63.77
2023-03-04T09:13:06.437Z,63.56
2023-03-04T09:15:35.984Z,64.00
2023-03-04T09:18:03.718Z,63.75
2023-03-04T09:20:31.389Z,63.78
2023-03-04T09:22:57.883Z,64.05
2023-03-04T09:25:24.476Z,64.14
2023-03-04T09:27:50.966Z,64.24
2023-03-04T09:30:17.599Z,64.30
2023-03-04T09:32:43.946Z,64.59
2023-03-04T09:35:10.691Z,64.71
2023-03-04T09:37:38.689Z,65.43
2023-03-04T09:40:08.191Z,65.49
2023-03-04T09:42:47.295Z,65.29
2023-03-04T09:45:18.651Z,64.82
2023-03-04T09:47:46.762Z,64.80
2023-03-04T09:50:13.408Z,64.23
2023-03-04T09:53:02.900Z,64.37
2023-03-04T09:55:37.366Z,63.80
2023-03-04T09:58:22.028Z,63.99
2023-03-04T10:00:56.874Z,63.99
2023-03-04T10:03:43.242Z,63.43
2023-03-04T10:06:17.799Z,63.78
2023-03-04T10:09:04.136Z,63.85
2023-03-04T10:11:34.061Z,63.85
2023-03-04T10:14:21.437Z,63.13
2023-03-04T10:16:56.530Z,63.33
2023-03-04T10:19:36.852Z,63.86
2023-03-04T10:22:17.019Z,64.15
2023-03-04T10:24:46.972Z,64.58
2023-03-04T10:27:17.190Z,64.00
2023-03-04T10:29:43.745Z,63.74
2023-03-04T10:32:20.775Z,63.64
2023-03-04T10:34:47.268Z,63.62
2023-03-04T10:37:13.689Z,63.19
2023-03-04T10:39:46.274Z,63.00
2023-03-04T10:42:15.668Z,63.03
2023-03-04T10:44:59.615Z,62.21
2023-03-04T10:47:32.648Z,62.54
2023-03-04T10:50:01.518Z,62.26
2023-03-04T10:52:35.136Z,61.96
2023-03-04T10:55:14.344Z,61.58
2023-03-04T10:57:43.602Z,61.50
2023-03-04T11:00:33.458Z,61.65
2023-03-04T11:03:27.861Z,61.18
2023-03-04T11:06:17.523Z,61.15
2023-03-04T11:08:44.903Z,60.69
2023-03-04T11:11:37.065Z,60.26
2023-03-04T11:14:17.171Z,60.61
2023-03-04T11:16:53.183Z,60.51
2023-03-04T11:19:22.687Z,60.63
2023-03-04T11:21:50.892Z,60.27
2023-03-04T11:24:29.379Z,60.36
2023-03-04T11:27:02.641Z,60.25
2023-03-04T11:29:51.552Z,59.49
2023-03-04T11:32:20.540Z,58.91
2023-03-04T11:34:53.053Z,58.63
2023-03-04T11:37:29.369Z,58.53
2023-03-04T11:40:12.428Z,58.20
2023-03-04T11:42:47.234Z,58.12
2023-03-04T11:45:29.143Z,57.72
2023-03-04T11:48:24.253Z,57.19
2023-03-04T11:51:19.133Z,56.12
2023-03-04T11:54:04.928Z,55.98
2023-03-04T11:56:45.678Z,54.46
2023-03-04T11:59:26.690Z,55.77
2023-03-04T12:02:10.368Z,56.08
2023-03-04T12:04:51.991Z,55.79
2023-03-04T12:07:46.733Z,56.39
2023-03-04T12:10:22.535Z,56.53
2023-03-04T12:13:19.416Z,56.55
2023-03-04T12:16:10.760Z,56.73
2023-03-04T12:18:58.008Z,57.17
2023-03-04T12:21:43.189Z,57.53
2023-03-04T12:24:23.346Z,57.58
2023-03-04T12:26:58.857Z,57.40
2023-03-04T12:29:56.093Z,56.11
2023-03-04T12:32:44.209Z,56.16
2023-03-04T12:35:36.447Z,56.82
2023-03-04T12:38:12.840Z,56.27
2023-03-04T12:40:49.521Z,55.61
2023-03-04T12:43:33.378Z,54.61
2023-03-04T12:46:36.041Z,54.47
2023-03-04T12:49:26.360Z,54.74
2023-03-04T12:51:55.720Z,54.51
2023-03-04T12:54:36.662Z,53.68
2023-03-04T12:57:22.964Z,54.04
2023-03-04T12:59:52.369Z,53.86
2023-03-04T13:02:36.328Z,54.52
2023-03-04T13:05:19.867Z,54.25
2023-03-04T13:08:23.082Z,53.92
2023-03-04T13:10:51.274Z,53.51
2023-03-04T13:13:37.060Z,53.77
2023-03-04T13:16:11.286Z,53.59
2023-03-04T13:18:41.182Z,52.83
2023-03-04T13:21:13.557Z,52.65
2023-03-04T13:23:40.762Z,52.71
2023-03-04T13:26:18.743Z,52.65
2023-03-04T13:28:45.526Z,52.83
2023-03-04T13:31:13.799Z,53.30
2023-03-04T13:33:47.854Z,53.48
2023-03-04T13:36:54.795Z,53.81
2023-03-04T13:39:27.615Z,54.08
2023-03-04T13:41:56.809Z,53.42
2023-03-04T13:44:36.134Z,53.49
2023-03-04T13:47:14.215Z,53.24
2023-03-04T13:49:40.790Z,53.04
2023-03-04T13:52:44.382Z,52.78
2023-03-04T13:55:34.557Z,53.25
2023-03-04T13:58:02.975Z,53.07
2023-03-04T14:00:29.754Z,53.25
2023-03-04T14:02:56.123Z,53.44
2023-03-04T14:05:22.546Z,53.17
2023-03-04T14:07:49.019Z,52.88
2023-03-04T14:10:25.025Z,52.76
2023-03-04T14:12:54.915Z,52.71
2023-03-04T14:15:24.271Z,52.60
2023-03-04T14:17:56.162Z,52.37
2023-03-04T14:20:30.012Z,51.76
2023-03-04T14:22:57.976Z,51.30
2023-03-04T14:25:28.322Z,51.28
2023-03-04T14:28:12.642Z,51.54
2023-03-04T14:30:43.772Z,51.39
2023-03-04T14:33:21.540Z,51.17
2023-03-04T14:35:51.131Z,51.01
2023-03-04T14:38:28.170Z,51.35
2023-03-04T14:41:05.441Z,51.86
2023-03-04T14:43:40.067Z,52.14
2023-03-04T14:46:11.391Z,52.63
2023-03-04T14:48:37.962Z,52.99
2023-03-04T14:51:04.530Z,51.99
2023-03-04T14:53:33.454Z,51.51
2023-03-04T14:56:05.027Z,51.53
2023-03-04T14:58:37.064Z,52.07
2023-03-04T15:01:13.282Z,52.79
2023-03-04T15:03:42.814Z,52.62
2023-03-04T15:06:18.782Z,53.02
2023-03-04T15:08:46.668Z,52.52
2023-03-04T15:11:26.137Z,52.79
2023-03-04T15:13:55.819Z,52.67
2023-03-04T15:16:25.625Z,52.81
2023-03-04T15:19:05.777Z,53.27
2023-03-04T15:21:40.716Z,52.73
2023-03-04T15:24:09.164Z,52.60
2023-03-04T15:26:40.434Z,52.40
2023-03-04T15:29:14.645Z,52.54
2023-03-04T15:31:41.142Z,52.39
2023-03-04T15:34:15.998Z,52.55
2023-03-04T15:36:46.581Z,53.44
2023-03-04T15:39:15.485Z,53.64
2023-03-04T15:41:42.040Z,53.23
2023-03-04T15:44:09.744Z,53.42
2023-03-04T15:46:36.374Z,53.22
2023-03-04T15:49:03.196Z,52.79
2023-03-04T15:51:29.950Z,52.89
2023-03-04T15:53:59.016Z,52.96
2023-03-04T15:56:28.380Z,52.93
2023-03-04T15:58:57.281Z,53.15
2023-03-04T16:01:24.362Z,53.22
2023-03-04T16:03:53.507Z,52.69
2023-03-04T16:06:24.125Z,52.76
2023-03-04T16:08:52.131Z,52.44
2023-03-04T16:11:25.030Z,52.57
2023-03-04T16:13:51.748Z,52.49
2023-03-04T16:16:18.798Z,52.18
2023-03-04T16:18:45.394Z,52.42
2023-03-04T16:21:14.808Z,52.51
2023-03-04T16:23:44.033Z,52.24
2023-03-04T16:26:13.897Z,52.27
2023-03-04T16:28:40.857Z,51.90
2023-03-04T16:31:07.808Z,52.52
2023-03-04T16:33:34.161Z,52.47
2023-03-04T16:36:00.768Z,52.47
2023-03-04T16:38:32.628Z,52.21
2023-03-04T16:41:02.020Z,52.30
2023-03-04T16:43:28.914Z,52.76
2023-03-04T16:45:55.624Z,52.66
2023-03-04T16:48:22.173Z,53.05
2023-03-04T16:50:48.584Z,52.55
2023-03-04T16:53:39.610Z,52.75
2023-03-04T16:56:11.876Z,52.55
2023-03-04T16:58:38.387Z,51.90
2023-03-04T17:01:04.923Z,52.12
2023-03-04T17:03:31.553Z,52.01
2023-03-04T17:05:58.521Z,52.09
2023-03-04T17:08:24.867Z,51.83
2023-03-04T17:10:52.404Z,51.68
2023-03-04T17:13:18.774Z,51.10
2023-03-04T17:15:46.820Z,51.78
2023-03-04T17:18:13.298Z,51.38
2023-03-04T17:20:40.397Z,51.18
2023-03-04T17:23:06.745Z,51.45
2023-03-04T17:25:33.292Z,51.57
2023-03-04T17:27:59.941Z,51.75
2023-03-04T17:30:26.509Z,52.29
2023-03-04T17:32:52.843Z,51.83
2023-03-04T17:35:19.466Z,52.19
2023-03-04T17:37:45.877Z,52.10
2023-03-04T17:40:15.417Z,52.43
2023-03-04T17:42:43.477Z,52.92
2023-03-04T17:45:11.108Z,52.89
2023-03-04T17:47:39.389Z,52.76
2023-03-04T17:50:07.535Z,53.04
2023-03-04T17:52:33.921Z,53.11
2023-03-04T17:55:00.335Z,53.02
2023-03-04T17:57:26.761Z,53.17
2023-03-04T17:59:53.106Z,53.11
2023-03-04T18:02:19.559Z,53.15
2023-03-04T18:04:48.234Z,52.99
2023-03-04T18:07:14.612Z,53.05
2023-03-04T18:09:40.983Z,53.40
2023-03-04T18:12:07.549Z,53.62
2023-03-04T18:14:33.922Z,53.57
2023-03-04T18:17:00.317Z,53.12
2023-03-04T18:19:26.662Z,53.35
2023-03-04T18:21:53.015Z,53.71
2023-03-04T18:24:19.340Z,54.06
2023-03-04T18:26:45.718Z,54.19
2023-03-04T18:29:12.234Z,55.26
2023-03-04T18:31:38.889Z,55.18
2023-03-04T18:34:05.761Z,55.32
2023-03-04T18:36:33.428Z,55.70
2023-03-04T18:39:00.123Z,55.63
2023-03-04T18:41:27.725Z,55.81
2023-03-04T18:43:54.605Z,56.17
2023-03-04T18:46:40.809Z,55.76
2023-03-04T18:49:08.917Z,56.44
2023-03-04T18:51:35.328Z,56.18
2023-03-04T18:54:01.677Z,56.36
2023-03-04T18:56:37.613Z,56.04
2023-03-04T18:59:12.578Z,56.67
2023-03-04T19:01:39.256Z,56.75
2023-03-04T19:04:06.321Z,56.68
2023-03-04T19:06:33.808Z,56.94
2023-03-04T19:09:00.466Z,56.83
2023-03-04T19:11:27.178Z,57.29
2023-03-04T19:13:53.526Z,57.25
2023-03-04T19:16:20.086Z,57.42
2023-03-04T19:18:46.453Z,57.41
2023-03-04T19:21:12.794Z,57.42
2023-03-04T19:23:39.957Z,57.28
2023-03-04T19:26:07.998Z,57.09
2023-03-04T19:28:35.444Z,57.40
2023-03-04T19:31:07.007Z,57.31
2023-03-04T19:33:37.643Z,57.63
2023-03-04T19:36:05.959Z,57.40
2023-03-04T19:38:33.534Z,57.63
2023-03-04T19:41:07.127Z,57.65
2023-03-04T19:43:36.788Z,58.10
2023-03-04T19:46:03.189Z,57.85
2023-03-04T19:48:29.693Z,57.69
2023-03-04T19:50:56.020Z,57.78
2023-03-04T19:53:22.372Z,57.92
2023-03-04T19:55:49.348Z,57.75
2023-03-04T19:58:16.418Z,57.70
2023-03-04T20:00:42.874Z,58.14
2023-03-04T20:03:09.424Z,57.79
2023-03-04T20:05:36.550Z,58.10
2023-03-04T20:08:03.313Z,58.44
2023-03-04T20:10:36.994Z,57.93
2023-03-04T20:13:05.039Z,58.08
2023-03-04T20:15:31.408Z,58.20
2023-03-04T20:17:57.945Z,57.78
2023-03-04T20:20:28.536Z,58.09
2023-03-04T20:22:56.197Z,57.69
2023-03-04T20:25:24.822Z,57.55
2023-03-04T20:27:51.185Z,57.82
2023-03-04T20:30:17.932Z,57.70
2023-03-04T20:32:44.892Z,58.03
2023-03-04T20:35:14.956Z,58.96
2023-03-04T20:37:42.649Z,58.43
2023-03-04T20:40:11.172Z,59.05
2023-03-04T20:42:37.605Z,58.86
2023-03-04T20:45:05.005Z,59.38
2023-03-04T20:47:31.406Z,59.27
2023-03-04T20:49:57.789Z,59.80
2023-03-04T20:52:24.155Z,59.56
2023-03-04T20:54:50.611Z,59.42
2023-03-04T20:57:16.967Z,59.53
2023-03-04T20:59:43.603Z,59.01
2023-03-04T21:02:14.432Z,59.34
2023-03-04T21:04:40.799Z,59.22
2023-03-04T21:07:07.129Z,59.46
2023-03-04T21:09:33.438Z,59.04
2023-03-04T21:12:01.156Z,59.07
2023-03-04T21:14:30.056Z,59.09
2023-03-04T21:17:02.244Z,58.85
2023-03-04T21:19:31.251Z,58.82
2023-03-04T21:22:00.047Z,58.70
2023-03-04T21:24:29.077Z,59.16
2023-03-04T21:26:55.568Z,58.69
2023-03-04T21:29:24.223Z,59.16
2023-03-04T21:31:54.362Z,58.46
2023-03-04T21:34:39.819Z,58.94
2023-03-04T21:37:06.268Z,58.92
2023-03-04T21:39:32.971Z,58.49
2023-03-04T21:42:00.214Z,58.64
2023-03-04T21:44:45.228Z,58.53
2023-03-04T21:47:14.749Z,58.73
2023-03-04T21:49:41.224Z,58.69
2023-03-04T21:52:07.560Z,58.42
2023-03-04T21:54:34.002Z,58.43
2023-03-04T21:57:00.337Z,58.74
2023-03-04T21:59:26.708Z,58.44
2023-03-04T22:01:54.941Z,58.70
2023-03-04T22:04:21.304Z,58.65
2023-03-04T22:06:47.608Z,58.88
2023-03-04T22:09:14.494Z,58.24
2023-03-04T22:11:40.832Z,58.25
2023-03-04T22:14:07.316Z,58.37
2023-03-04T22:16:37.453Z,58.29
2023-03-04T22:19:06.268Z,58.63
2023-03-04T22:21:32.708Z,58.79
2023-03-04T22:23:59.448Z,58.26
2023-03-04T22:26:30.137Z,58.33
2023-03-04T22:28:56.821Z,58.12
2023-03-04T22:31:30.061Z,58.32
2023-03-04T22:34:00.083Z,57.87
2023-03-04T22:36:28.817Z,58.56
2023-03-04T22:38:55.666Z,58.53
2023-03-04T22:41:22.840Z,58.04
2023-03-04T22:43:50.180Z,58.09
2023-03-04T22:46:19.999Z,58.65
2023-03-04T22:48:47.334Z,58.60
2023-03-04T22:51:13.781Z,58.57
2023-03-04T22:53:40.312Z,58.30
2023-03-04T22:56:07.546Z,58.29
2023-03-04T22:58:34.217Z,58.15
2023-03-04T23:01:02.569Z,58.61
2023-03-04T23:03:30.947Z,58.48
2023-03-04T23:06:13.366Z,58.54
2023-03-04T23:08:41.222Z,58.68
2023-03-04T23:11:16.171Z,58.39
2023-03-04T23:13:43.009Z,58.64
2023-03-04T23:16:12.078Z,58.60
2023-03-04T23:18:39.983Z,58.49
2023-03-04T23:21:11.850Z,58.71
2023-03-04T23:23:38.874Z,58.66
2023-03-04T23:26:06.133Z,59.05
2023-03-04T23:28:32.521Z,59.16
2023-03-04T23:30:59.025Z,59.25
2023-03-04T23:33:25.545Z,58.76
2023-03-04T23:35:52.001Z,58.64
2023-03-04T23:38:18.406Z,58.86
2023-03-04T23:40:44.741Z,59.04
2023-03-04T23:43:11.089Z,58.77
2023-03-04T23:45:38.170Z,59.12
2023-03-04T23:48:04.780Z,59.13
2023-03-04T23:50:32.157Z,59.28
2023-03-04T23:52:58.555Z,59.37
2023-03-04T23:55:24.921Z,59.25
2023-03-04T23:57:51.334Z,59.45
